createdAt,value
2019-02-23T00:02:26.247Z,11.18
2019-02-23T00:06:31.954Z,11.04
2019-02-23T00:10:37.710Z,10.98
2019-02-23T00:14:43.472Z,10.92
2019-02-23T00:18:49.258Z,11.02
2019-02-23T00:22:54.951Z,10.94
2019-02-23T00:27:00.714Z,10.84
2019-02-23T00:31:06.468Z,10.81
2019-02-23T00:35:12.205Z,10.67
2019-02-23T00:39:17.916Z,10.59
2019-02-23T00:43:23.614Z,10.46
2019-02-23T00:47:30.390Z,10.34
2019-02-23T00:51:36.069Z,10.35
2019-02-23T00:55:41.768Z,10.39
2019-02-23T00:59:47.459Z,10.41
2019-02-23T01:03:53.168Z,10.34
2019-02-23T01:07:58.871Z,10.31
2019-02-23T01:12:04.558Z,10.25
2019-02-23T01:16:10.324Z,10.22
2019-02-23T01:20:16.089Z,10.06
2019-02-23T01:24:21.853Z,10.02
2019-02-23T01:28:29.293Z,10.03
2019-02-23T01:32:34.992Z,10.03
2019-02-23T01:36:40.690Z,10.00
2019-02-23T01:40:46.594Z,10.07
2019-02-23T01:44:52.407Z,10.09
2019-02-23T01:48:58.112Z,10.16
2019-02-23T01:53:03.813Z,10.20
2019-02-23T01:57:09.556Z,10.27
2019-02-23T02:01:15.322Z,10.14
2019-02-23T02:05:21.166Z,10.12
2019-02-23T02:09:27.012Z,10.12
2019-02-23T02:13:32.882Z,10.14
2019-02-23T02:17:38.743Z,9.99
2019-02-23T02:21:44.693Z,10.02
2019-02-23T02:25:50.480Z,10.00
2019-02-23T02:29:57.345Z,9.96
2019-02-23T02:34:12.863Z,9.81
2019-02-23T02:38:18.579Z,9.78
2019-02-23T02:42:24.265Z,9.76
2019-02-23T02:46:29.933Z,9.82
2019-02-23T02:50:35.643Z,9.72
2019-02-23T02:54:41.343Z,9.68
2019-02-23T02:58:47.034Z,9.62
2019-02-23T03:02:52.726Z,9.67
2019-02-23T03:06:58.420Z,9.75
2019-02-23T03:11:04.117Z,9.82
2019-02-23T03:15:10.120Z,9.84
2019-02-23T03:19:15.806Z,9.84
2019-02-23T03:23:21.534Z,9.82
2019-02-23T03:27:27.198Z,9.75
2019-02-23T03:31:33.030Z,9.62
2019-02-23T03:35:38.763Z,9.47
2019-02-23T03:39:44.557Z,9.56
2019-02-23T03:43:50.207Z,9.48
2019-02-23T03:47:55.885Z,9.29
2019-02-23T03:52:01.580Z,9.19
2019-02-23T03:56:07.366Z,9.16
2019-02-23T04:00:13.273Z,9.00
2019-02-23T04:04:18.933Z,9.09
2019-02-23T04:08:24.651Z,9.03
2019-02-23T04:12:30.405Z,8.90
2019-02-23T04:16:36.186Z,8.89
2019-02-23T04:20:41.871Z,8.98
2019-02-23T04:24:47.684Z,9.14
2019-02-23T04:28:53.382Z,9.11
2019-02-23T04:32:59.067Z,8.94
2019-02-23T04:37:04.766Z,8.98
2019-02-23T04:41:11.117Z,8.96
2019-02-23T04:45:16.800Z,8.87
2019-02-23T04:49:25.653Z,8.78
2019-02-23T04:53:29.876Z,8.92
2019-02-23T04:57:35.629Z,8.87
2019-02-23T05:01:41.383Z,8.65
2019-02-23T05:05:47.303Z,8.58
2019-02-23T05:09:52.994Z,8.49
2019-02-23T05:13:58.689Z,8.46
2019-02-23T05:18:04.473Z,8.40
2019-02-23T05:22:10.173Z,8.42
2019-02-23T05:26:15.925Z,8.26
2019-02-23T05:30:21.619Z,7.99
2019-02-23T05:34:27.319Z,7.89
2019-02-23T05:38:33.001Z,7.77
2019-02-23T05:42:39.728Z,7.75
2019-02-23T05:46:45.536Z,7.79
2019-02-23T05:50:51.278Z,7.84
2019-02-23T05:54:57.144Z,7.86
2019-02-23T05:59:03.796Z,7.68
2019-02-23T06:03:09.504Z,7.66
2019-02-23T06:07:15.204Z,7.72
2019-02-23T06:11:20.909Z,7.66
2019-02-23T06:15:26.588Z,7.38
2019-02-23T06:19:32.281Z,7.49
2019-02-23T06:23:37.957Z,7.28
2019-02-23T06:27:43.733Z,7.31
2019-02-23T06:31:49.515Z,7.28
2019-02-23T06:35:55.210Z,7.40
2019-02-23T06:40:00.909Z,7.32
2019-02-23T06:44:06.591Z,7.18
2019-02-23T06:48:12.300Z,7.31
2019-02-23T06:52:17.988Z,7.48
2019-02-23T06:56:23.770Z,7.50
2019-02-23T07:00:29.529Z,7.38
2019-02-23T07:04:35.209Z,7.44
2019-02-23T07:08:40.911Z,7.36
2019-02-23T07:12:46.607Z,7.39
2019-02-23T07:16:52.357Z,7.37
2019-02-23T07:20:58.094Z,7.55
2019-02-23T07:25:04.736Z,7.71
2019-02-23T07:29:10.426Z,7.89
2019-02-23T07:33:20.136Z,8.93
2019-02-23T07:37:23.526Z,9.50
2019-02-23T07:41:29.212Z,9.07
2019-02-23T07:45:34.911Z,8.62
2019-02-23T07:49:40.602Z,8.57
2019-02-23T07:53:46.386Z,8.67
2019-02-23T07:57:52.158Z,8.88
2019-02-23T08:01:57.884Z,8.95
2019-02-23T08:06:03.552Z,8.84
2019-02-23T08:10:12.322Z,8.88
2019-02-23T08:14:18.026Z,8.88
2019-02-23T08:18:23.738Z,8.87
2019-02-23T08:22:37.026Z,8.85
2019-02-23T08:26:37.819Z,8.71
2019-02-23T08:30:44.483Z,8.94
2019-02-23T08:34:50.259Z,8.99
2019-02-23T08:38:57.026Z,9.47
2019-02-23T08:43:02.736Z,10.82
2019-02-23T08:47:08.445Z,11.53
2019-02-23T08:51:14.158Z,11.57
2019-02-23T08:55:19.927Z,10.98
2019-02-23T08:59:25.637Z,10.77
2019-02-23T09:03:31.357Z,11.17
2019-02-23T09:07:37.069Z,10.76
2019-02-23T09:11:42.799Z,10.97
2019-02-23T09:15:50.689Z,11.09
2019-02-23T09:19:56.305Z,11.67
2019-02-23T09:24:02.018Z,12.19
2019-02-23T09:28:07.728Z,12.43
2019-02-23T09:32:13.427Z,12.72
2019-02-23T09:36:19.138Z,12.80
2019-02-23T09:40:24.834Z,13.05
2019-02-23T09:44:30.517Z,13.21
2019-02-23T09:48:36.233Z,12.56
2019-02-23T09:52:41.939Z,12.05
2019-02-23T09:56:47.727Z,12.11
2019-02-23T10:00:55.163Z,12.24
2019-02-23T10:05:00.786Z,12.88
2019-02-23T10:09:07.708Z,13.73
2019-02-23T10:13:15.097Z,13.64
2019-02-23T10:17:20.780Z,13.84
2019-02-23T10:21:26.541Z,14.28
2019-02-23T10:25:32.445Z,14.66
2019-02-23T10:29:39.317Z,15.43
2019-02-23T10:33:47.657Z,15.31
2019-02-23T10:37:52.435Z,15.42
2019-02-23T10:41:58.132Z,15.09
2019-02-23T10:46:03.848Z,15.41
2019-02-23T10:50:12.387Z,15.06
2019-02-23T10:54:18.139Z,14.92
2019-02-23T10:58:24.813Z,15.50
2019-02-23T11:02:30.592Z,15.56
2019-02-23T11:06:38.424Z,15.24
2019-02-23T11:10:43.853Z,15.38
2019-02-23T11:14:49.598Z,16.10
2019-02-23T11:18:55.309Z,16.85
2019-02-23T11:23:01.350Z,18.31
2019-02-23T11:27:07.636Z,20.81
2019-02-23T11:31:13.413Z,22.44
2019-02-23T11:35:19.122Z,24.02
2019-02-23T11:39:24.820Z,25.16
2019-02-23T11:43:30.522Z,24.80
2019-02-23T11:47:36.225Z,23.45
2019-02-23T11:51:41.931Z,23.53
2019-02-23T11:55:47.695Z,22.76
2019-02-23T11:59:53.466Z,23.11
2019-02-23T12:03:59.173Z,22.70
2019-02-23T12:08:04.884Z,22.53
2019-02-23T12:12:10.579Z,22.13
2019-02-23T12:16:16.294Z,22.38
2019-02-23T12:20:22.032Z,23.30
2019-02-23T12:24:27.724Z,22.92
2019-02-23T12:28:33.483Z,22.74
2019-02-23T12:32:39.178Z,22.20
2019-02-23T12:36:45.939Z,21.70
2019-02-23T12:40:51.643Z,21.61
2019-02-23T12:44:57.353Z,21.11
2019-02-23T12:49:03.049Z,21.42
2019-02-23T12:53:08.746Z,21.11
2019-02-23T12:57:14.432Z,19.99
2019-02-23T13:01:20.131Z,19.41
2019-02-23T13:05:25.842Z,19.35
2019-02-23T13:09:33.446Z,19.63
2019-02-23T13:13:49.152Z,19.72
2019-02-23T13:18:44.119Z,19.56
2019-02-23T13:23:10.650Z,19.72
2019-02-23T13:27:35.805Z,20.12
2019-02-23T13:31:46.101Z,20.62
2019-02-23T13:36:28.022Z,19.73
2019-02-23T13:41:13.367Z,18.19
2019-02-23T13:45:38.288Z,16.56
2019-02-23T13:50:12.673Z,15.43
2019-02-23T13:54:48.043Z,15.26
2019-02-23T13:59:06.517Z,17.29
2019-02-23T14:03:36.607Z,18.45
2019-02-23T14:07:48.728Z,18.86
2019-02-23T14:12:40.218Z,18.93
2019-02-23T14:17:07.997Z,17.63
2019-02-23T14:21:44.055Z,16.49
2019-02-23T14:26:09.470Z,15.77
2019-02-23T14:30:57.589Z,15.43
2019-02-23T14:35:20.096Z,14.98
2019-02-23T14:39:57.224Z,15.06
2019-02-23T14:44:37.226Z,15.27
2019-02-23T14:49:34.262Z,15.31
2019-02-23T14:53:56.506Z,15.31
2019-02-23T14:58:38.301Z,15.07
2019-02-23T15:02:51.358Z,15.16
2019-02-23T15:07:16.651Z,15.09
2019-02-23T15:11:35.704Z,14.85
2019-02-23T15:16:24.373Z,14.86
2019-02-23T15:20:55.403Z,14.84
2019-02-23T15:25:33.792Z,14.69
2019-02-23T15:30:00.330Z,14.68
2019-02-23T15:34:23.841Z,14.71
2019-02-23T15:39:16.890Z,14.59
2019-02-23T15:43:39.080Z,14.55
2019-02-23T15:48:06.876Z,14.44
2019-02-23T15:52:12.721Z,14.26
2019-02-23T15:56:18.490Z,14.17
2019-02-23T16:00:24.198Z,14.08
2019-02-23T16:04:29.877Z,14.05
2019-02-23T16:08:35.581Z,13.93
2019-02-23T16:12:42.326Z,13.80
2019-02-23T16:16:48.044Z,13.77
2019-02-23T16:20:53.867Z,13.73
2019-02-23T16:25:01.189Z,13.55
2019-02-23T16:29:07.019Z,13.40
2019-02-23T16:33:12.772Z,13.40
2019-02-23T16:37:18.514Z,13.38
2019-02-23T16:41:24.252Z,13.31
2019-02-23T16:45:29.939Z,13.25
2019-02-23T16:49:35.656Z,13.10
2019-02-23T16:53:41.361Z,13.09
2019-02-23T16:57:47.075Z,13.01
2019-02-23T17:01:52.760Z,13.01
2019-02-23T17:05:59.809Z,12.97
2019-02-23T17:10:07.360Z,12.97
2019-02-23T17:14:13.046Z,12.89
2019-02-23T17:18:18.747Z,12.75
2019-02-23T17:22:25.408Z,12.65
2019-02-23T17:26:31.097Z,12.60
2019-02-23T17:30:36.804Z,12.53
2019-02-23T17:34:42.519Z,12.48
2019-02-23T17:38:48.227Z,12.47
2019-02-23T17:42:53.923Z,12.30
2019-02-23T17:46:59.635Z,12.14
2019-02-23T17:51:05.350Z,11.99
2019-02-23T17:55:11.043Z,11.93
2019-02-23T17:59:16.789Z,11.97
2019-02-23T18:03:22.768Z,12.03
2019-02-23T18:07:28.523Z,12.07
2019-02-23T18:11:34.232Z,12.01
2019-02-23T18:15:40.024Z,12.04
2019-02-23T18:19:45.708Z,11.99
2019-02-23T18:23:51.496Z,11.99
2019-02-23T18:27:57.221Z,11.87
2019-02-23T18:37:08.406Z,11.88
2019-02-23T18:41:14.175Z,11.70
2019-02-23T18:45:19.943Z,11.73
2019-02-23T18:49:25.748Z,11.76
2019-02-23T18:53:31.577Z,11.83
2019-02-23T18:57:37.302Z,11.82
2019-02-23T19:01:43.009Z,11.83
2019-02-23T19:05:50.100Z,11.73
2019-02-23T19:09:56.876Z,11.54
2019-02-23T19:14:02.627Z,11.36
2019-02-23T19:18:20.424Z,11.25
2019-02-23T19:22:26.140Z,11.25
2019-02-23T19:26:38.247Z,11.19
2019-02-23T19:30:40.370Z,11.16
2019-02-23T19:34:46.159Z,10.96
2019-02-23T19:38:51.919Z,10.71
2019-02-23T19:42:57.652Z,10.69
2019-02-23T19:47:03.554Z,10.73
2019-02-23T19:51:10.170Z,10.64
2019-02-23T19:55:17.593Z,10.61
2019-02-23T19:59:23.294Z,10.64
2019-02-23T20:03:29.044Z,10.45
2019-02-23T20:07:34.739Z,10.29
2019-02-23T20:11:40.464Z,10.25
2019-02-23T20:15:46.340Z,10.20
2019-02-23T20:36:19.094Z,10.05
2019-02-23T20:41:15.905Z,9.88
2019-02-23T20:45:21.721Z,9.79
2019-02-23T20:50:18.263Z,9.71
2019-02-23T20:54:24.022Z,9.72
2019-02-23T20:59:17.802Z,9.66
2019-02-23T21:03:23.501Z,9.47
2019-02-23T21:08:17.472Z,9.59
2019-02-23T21:12:23.290Z,9.49
2019-02-23T21:17:17.142Z,9.41
2019-02-23T21:21:22.845Z,9.43
2019-02-23T21:26:16.856Z,9.23
2019-02-23T21:30:22.541Z,9.26
2019-02-23T21:39:58.930Z,9.12
2019-02-23T21:44:19.490Z,9.26
2019-02-23T21:48:25.225Z,9.28
2019-02-23T21:52:30.929Z,9.29
2019-02-23T21:56:36.645Z,9.15
2019-02-23T22:00:42.361Z,9.09
2019-02-23T22:04:48.061Z,9.06
2019-02-23T22:08:53.822Z,9.07
2019-02-23T22:12:59.557Z,8.84
2019-02-23T22:17:05.293Z,8.82
2019-02-23T22:21:10.995Z,8.71
2019-02-23T22:25:16.700Z,8.82
2019-02-23T22:29:22.393Z,8.80
2019-02-23T22:33:28.181Z,8.52
2019-02-23T22:37:33.902Z,8.53
2019-02-23T22:41:39.566Z,8.63
2019-02-23T22:45:45.278Z,8.65
2019-02-23T22:49:50.986Z,8.63
2019-02-23T22:53:56.690Z,8.52
2019-02-23T22:58:02.420Z,8.51
2019-02-23T23:02:08.189Z,8.51
2019-02-23T23:06:13.934Z,8.59
2019-02-23T23:10:19.689Z,8.65
2019-02-23T23:14:25.368Z,8.46
2019-02-23T23:18:32.032Z,8.58
2019-02-23T23:22:37.716Z,8.62
2019-02-23T23:26:43.484Z,8.82
2019-02-23T23:30:49.191Z,8.90
2019-02-23T23:34:54.957Z,8.81
2019-02-23T23:39:00.695Z,8.60
2019-02-23T23:43:08.004Z,8.38
2019-02-23T23:47:13.722Z,8.41
2019-02-23T23:51:19.405Z,8.53
2019-02-23T23:55:25.097Z,8.56
2019-02-23T23:59:30.779Z,8.52
